createdAt,value
2019-03-18T00:01:04.445Z,6.22
2019-03-18T00:04:08.228Z,6.21
2019-03-18T00:07:12.050Z,6.25
2019-03-18T00:10:15.931Z,6.22
2019-03-18T00:13:19.716Z,6.32
2019-03-18T00:16:23.526Z,6.11
2019-03-18T00:19:27.344Z,6.19
2019-03-18T00:22:31.172Z,6.18
2019-03-18T00:25:34.988Z,6.06
2019-03-18T00:28:38.824Z,6.04
2019-03-18T00:31:42.641Z,6.00
2019-03-18T00:34:46.480Z,5.88
2019-03-18T00:37:50.367Z,5.93
2019-03-18T00:40:54.239Z,5.85
2019-03-18T00:43:58.033Z,5.81
2019-03-18T00:47:01.835Z,5.70
2019-03-18T00:50:06.679Z,5.85
2019-03-18T00:53:10.580Z,5.82
2019-03-18T00:56:14.363Z,5.89
2019-03-18T00:59:18.187Z,5.95
2019-03-18T01:02:21.967Z,6.02
2019-03-18T01:05:25.867Z,6.10
2019-03-18T01:08:29.715Z,6.03
2019-03-18T01:11:33.525Z,6.07
2019-03-18T01:14:37.319Z,6.08
2019-03-18T01:17:41.182Z,6.14
2019-03-18T01:20:45.043Z,6.16
2019-03-18T01:23:48.959Z,6.18
2019-03-18T01:26:52.740Z,6.22
2019-03-18T01:29:56.558Z,6.19
2019-03-18T01:33:00.356Z,6.32
2019-03-18T01:36:04.259Z,6.23
2019-03-18T01:39:08.418Z,6.19
2019-03-18T01:42:12.309Z,6.23
2019-03-18T01:45:16.185Z,6.25
2019-03-18T01:48:20.006Z,6.13
2019-03-18T01:51:23.799Z,6.03
2019-03-18T01:54:31.119Z,6.01
2019-03-18T01:57:34.876Z,5.95
2019-03-18T02:00:38.925Z,5.80
2019-03-18T02:03:42.715Z,5.79
2019-03-18T02:06:46.621Z,5.60
2019-03-18T02:09:50.428Z,5.59
2019-03-18T02:12:54.246Z,5.46
2019-03-18T02:15:58.048Z,5.45
2019-03-18T02:19:01.864Z,5.49
2019-03-18T02:22:05.669Z,5.64
2019-03-18T02:25:09.639Z,5.61
2019-03-18T02:28:13.484Z,5.68
2019-03-18T02:31:17.355Z,5.80
2019-03-18T02:34:21.158Z,5.80
2019-03-18T02:37:24.933Z,5.87
2019-03-18T02:40:28.753Z,5.83
2019-03-18T02:43:32.540Z,5.92
2019-03-18T02:46:36.379Z,5.91
2019-03-18T02:49:40.176Z,5.84
2019-03-18T02:52:43.984Z,5.75
2019-03-18T02:55:47.776Z,5.63
2019-03-18T02:58:51.682Z,5.62
2019-03-18T03:01:55.492Z,5.64
2019-03-18T03:04:59.283Z,5.79
2019-03-18T03:08:03.174Z,5.83
2019-03-18T03:11:06.987Z,5.75
2019-03-18T03:14:10.788Z,5.81
2019-03-18T03:17:14.596Z,5.84
2019-03-18T03:20:18.390Z,5.80
2019-03-18T03:23:22.209Z,5.75
2019-03-18T03:26:26.017Z,5.81
2019-03-18T03:29:29.921Z,5.66
2019-03-18T03:32:33.758Z,5.69
2019-03-18T03:35:37.572Z,5.58
2019-03-18T03:38:41.378Z,5.43
2019-03-18T03:41:45.187Z,5.55
2019-03-18T03:44:48.953Z,5.61
2019-03-18T03:47:52.749Z,5.67
2019-03-18T03:50:56.555Z,5.61
2019-03-18T03:54:00.423Z,5.63
2019-03-18T03:57:04.355Z,5.71
2019-03-18T04:00:09.374Z,5.66
2019-03-18T04:03:13.338Z,5.82
2019-03-18T04:06:17.416Z,5.90
2019-03-18T04:09:21.340Z,5.91
2019-03-18T04:12:25.144Z,5.98
2019-03-18T04:15:29.009Z,5.93
2019-03-18T04:18:32.849Z,6.00
2019-03-18T04:21:36.714Z,5.93
2019-03-18T04:24:40.603Z,5.91
2019-03-18T04:27:44.446Z,5.86
2019-03-18T04:30:48.393Z,5.73
2019-03-18T04:33:52.208Z,5.66
2019-03-18T04:36:56.154Z,5.71
2019-03-18T04:39:59.944Z,5.73
2019-03-18T04:43:03.789Z,5.84
2019-03-18T04:46:07.601Z,5.69
2019-03-18T04:49:11.505Z,5.64
2019-03-18T04:52:15.305Z,5.69
2019-03-18T04:55:19.116Z,5.64
2019-03-18T04:58:22.940Z,5.48
2019-03-18T05:01:26.810Z,5.36
2019-03-18T05:04:30.796Z,5.23
2019-03-18T05:07:34.615Z,5.27
2019-03-18T05:10:38.456Z,5.30
2019-03-18T05:13:42.427Z,5.30
2019-03-18T05:16:46.282Z,5.38
2019-03-18T05:19:50.152Z,5.18
2019-03-18T05:22:54.043Z,5.28
2019-03-18T05:25:57.858Z,5.27
2019-03-18T05:29:01.697Z,5.40
2019-03-18T05:32:05.513Z,5.39
2019-03-18T05:35:09.449Z,5.36
2019-03-18T05:38:13.263Z,5.48
2019-03-18T05:41:17.076Z,5.37
2019-03-18T05:44:20.895Z,5.42
2019-03-18T05:47:24.785Z,5.44
2019-03-18T05:50:28.642Z,5.48
2019-03-18T05:53:32.526Z,5.49
2019-03-18T05:56:36.358Z,5.50
2019-03-18T05:59:40.213Z,5.56
2019-03-18T06:02:46.772Z,5.53
2019-03-18T06:05:49.634Z,5.58
2019-03-18T06:08:53.453Z,5.43
2019-03-18T06:11:57.379Z,5.50
2019-03-18T06:15:01.180Z,5.38
2019-03-18T06:18:05.135Z,5.40
2019-03-18T06:21:08.920Z,5.45
2019-03-18T06:24:12.788Z,5.53
2019-03-18T06:27:16.597Z,5.49
2019-03-18T06:30:20.430Z,5.64
2019-03-18T06:33:24.224Z,5.55
2019-03-18T06:36:28.097Z,5.59
2019-03-18T06:39:31.903Z,5.65
2019-03-18T06:42:35.719Z,5.69
2019-03-18T06:45:39.576Z,5.75
2019-03-18T06:48:43.414Z,5.85
2019-03-18T06:51:47.242Z,5.96
2019-03-18T06:54:51.060Z,6.00
2019-03-18T06:57:54.908Z,6.08
2019-03-18T07:00:58.752Z,6.21
2019-03-18T07:04:02.556Z,6.19
2019-03-18T07:07:06.345Z,6.39
2019-03-18T07:10:10.419Z,6.36
2019-03-18T07:13:14.334Z,6.31
2019-03-18T07:16:18.158Z,6.38
2019-03-18T07:19:21.975Z,6.47
2019-03-18T07:22:25.809Z,6.57
2019-03-18T07:25:29.631Z,6.50
2019-03-18T07:28:33.609Z,6.52
2019-03-18T07:31:37.435Z,6.52
2019-03-18T07:34:41.284Z,6.50
2019-03-18T07:37:45.107Z,6.43
2019-03-18T07:40:48.913Z,6.47
2019-03-18T07:43:52.731Z,6.46
2019-03-18T07:46:56.553Z,6.39
2019-03-18T07:50:00.509Z,6.65
2019-03-18T07:53:04.369Z,6.65
2019-03-18T07:56:08.258Z,6.53
2019-03-18T07:59:12.093Z,6.53
2019-03-18T08:02:15.900Z,6.66
2019-03-18T08:05:19.710Z,6.75
2019-03-18T08:08:23.645Z,6.74
2019-03-18T08:11:27.414Z,6.78
2019-03-18T08:14:31.312Z,6.85
2019-03-18T08:17:35.104Z,6.87
2019-03-18T08:20:38.909Z,7.04
2019-03-18T08:23:42.708Z,7.05
2019-03-18T08:26:46.593Z,7.23
2019-03-18T08:29:50.388Z,7.21
2019-03-18T08:32:54.248Z,7.26
2019-03-18T08:35:58.072Z,7.09
2019-03-18T08:39:01.975Z,6.95
2019-03-18T08:42:05.801Z,7.16
2019-03-18T08:45:09.729Z,7.07
2019-03-18T08:48:13.552Z,7.06
2019-03-18T08:51:17.372Z,7.01
2019-03-18T08:54:21.389Z,6.76
2019-03-18T08:57:25.241Z,6.76
2019-03-18T09:00:29.140Z,6.82
2019-03-18T09:03:32.964Z,7.13
2019-03-18T09:06:36.785Z,7.20
2019-03-18T09:09:40.645Z,7.39
2019-03-18T09:12:44.605Z,7.54
2019-03-18T09:15:48.444Z,7.47
2019-03-18T09:18:52.270Z,7.42
2019-03-18T09:21:56.090Z,6.35
2019-03-18T09:24:59.932Z,6.13
2019-03-18T09:28:03.835Z,6.11
2019-03-18T09:31:07.707Z,6.43
2019-03-18T09:34:11.537Z,6.73
2019-03-18T09:37:15.337Z,7.05
2019-03-18T09:40:19.361Z,7.05
2019-03-18T09:43:23.178Z,6.48
2019-03-18T09:46:27.088Z,6.42
2019-03-18T09:49:30.987Z,6.51
2019-03-18T09:52:34.901Z,6.67
2019-03-18T09:55:38.826Z,6.76
2019-03-18T09:58:42.677Z,6.97
2019-03-18T10:01:46.495Z,7.16
2019-03-18T10:04:50.351Z,7.10
2019-03-18T10:07:54.518Z,7.20
2019-03-18T10:10:58.446Z,6.96
2019-03-18T10:14:02.425Z,6.78
2019-03-18T10:17:09.792Z,6.85
2019-03-18T10:20:12.098Z,6.55
2019-03-18T10:23:16.020Z,6.45
2019-03-18T10:26:19.906Z,6.13
2019-03-18T10:29:23.761Z,6.36
2019-03-18T10:32:27.624Z,6.62
2019-03-18T10:35:31.442Z,7.01
2019-03-18T10:38:35.280Z,7.17
2019-03-18T10:41:39.133Z,7.47
2019-03-18T10:44:42.932Z,7.68
2019-03-18T10:47:46.842Z,7.47
2019-03-18T10:50:50.767Z,7.47
2019-03-18T10:53:54.591Z,7.60
2019-03-18T10:56:58.450Z,7.64
2019-03-18T11:00:02.285Z,7.92
2019-03-18T11:03:06.264Z,8.07
2019-03-18T11:06:10.077Z,8.14
2019-03-18T11:09:13.925Z,8.08
2019-03-18T11:12:17.838Z,8.02
2019-03-18T11:15:21.722Z,8.09
2019-03-18T11:18:25.537Z,8.14
2019-03-18T11:21:29.337Z,8.11
2019-03-18T11:24:33.181Z,8.23
2019-03-18T11:27:38.168Z,8.23
2019-03-18T11:30:42.004Z,8.31
2019-03-18T11:33:45.853Z,8.54
2019-03-18T11:36:49.670Z,8.46
2019-03-18T11:39:53.520Z,8.40
2019-03-18T11:42:57.323Z,8.48
2019-03-18T11:46:01.155Z,8.36
2019-03-18T11:49:05.128Z,8.39
2019-03-18T11:52:09.082Z,8.40
2019-03-18T11:55:14.594Z,8.30
2019-03-18T11:58:18.419Z,8.30
2019-03-18T12:01:22.254Z,8.11
2019-03-18T12:04:26.123Z,8.08
2019-03-18T12:07:29.956Z,8.02
2019-03-18T12:10:33.869Z,8.22
2019-03-18T12:13:37.682Z,8.27
2019-03-18T12:16:41.518Z,8.05
2019-03-18T12:19:45.334Z,8.36
2019-03-18T12:22:49.346Z,8.40
2019-03-18T12:25:53.212Z,8.53
2019-03-18T12:28:57.138Z,8.60
2019-03-18T12:32:00.987Z,8.60
2019-03-18T12:35:05.069Z,8.55
2019-03-18T12:38:08.905Z,8.70
2019-03-18T12:41:12.725Z,8.74
2019-03-18T12:44:16.612Z,8.74
2019-03-18T12:47:20.421Z,8.35
2019-03-18T12:50:42.943Z,8.23
2019-03-18T12:53:29.969Z,8.32
2019-03-18T12:56:33.919Z,8.65
2019-03-18T12:59:39.130Z,8.34
2019-03-18T13:02:43.006Z,8.28
2019-03-18T13:05:46.882Z,8.57
2019-03-18T13:08:50.691Z,8.52
2019-03-18T13:11:54.501Z,8.68
2019-03-18T13:14:58.319Z,8.94
2019-03-18T13:18:02.125Z,8.79
2019-03-18T13:21:08.233Z,8.82
2019-03-18T13:24:11.604Z,8.77
2019-03-18T13:27:15.497Z,8.80
2019-03-18T13:30:19.462Z,8.62
2019-03-18T13:33:23.280Z,8.33
2019-03-18T13:36:27.111Z,8.45
2019-03-18T13:39:30.925Z,8.53
2019-03-18T13:42:34.754Z,8.28
2019-03-18T13:45:38.662Z,8.29
2019-03-18T13:48:42.481Z,8.10
2019-03-18T13:51:46.298Z,6.97
2019-03-18T13:54:50.111Z,6.88
2019-03-18T13:57:53.933Z,6.90
2019-03-18T14:00:57.721Z,6.96
2019-03-18T14:04:01.563Z,6.99
2019-03-18T14:07:05.566Z,7.43
2019-03-18T14:10:11.281Z,7.43
2019-03-18T14:13:15.206Z,7.47
2019-03-18T14:16:19.047Z,7.57
2019-03-18T14:19:22.839Z,7.75
2019-03-18T14:22:26.672Z,7.97
2019-03-18T14:25:30.567Z,8.09
2019-03-18T14:28:34.420Z,8.05
2019-03-18T14:31:38.254Z,7.92
2019-03-18T14:34:42.036Z,7.61
2019-03-18T14:37:45.950Z,7.52
2019-03-18T14:40:49.778Z,7.59
2019-03-18T14:43:53.624Z,7.73
2019-03-18T14:46:57.435Z,7.77
2019-03-18T14:50:01.286Z,7.50
2019-03-18T14:53:05.149Z,7.50
2019-03-18T14:56:08.978Z,7.67
2019-03-18T14:59:12.829Z,7.82
2019-03-18T15:02:16.678Z,7.98
2019-03-18T15:05:20.616Z,8.01
2019-03-18T15:08:24.421Z,8.13
2019-03-18T15:11:28.342Z,8.02
2019-03-18T15:14:32.173Z,7.91
2019-03-18T15:17:35.979Z,7.75
2019-03-18T15:20:39.775Z,7.84
2019-03-18T15:23:43.590Z,7.67
2019-03-18T15:26:47.413Z,7.67
2019-03-18T15:29:51.224Z,7.49
2019-03-18T15:32:55.036Z,7.33
2019-03-18T15:35:58.876Z,7.51
2019-03-18T15:39:05.573Z,7.43
2019-03-18T15:42:08.236Z,7.54
2019-03-18T15:45:12.902Z,7.33
2019-03-18T15:48:16.732Z,7.11
2019-03-18T15:51:20.664Z,6.77
2019-03-18T15:54:24.529Z,6.55
2019-03-18T15:57:29.816Z,6.68
2019-03-18T16:00:34.033Z,6.74
2019-03-18T16:03:38.031Z,6.87
2019-03-18T16:06:41.902Z,7.29
2019-03-18T16:09:45.738Z,7.38
2019-03-18T16:12:49.714Z,7.54
2019-03-18T16:15:53.543Z,7.70
2019-03-18T16:18:57.385Z,7.71
2019-03-18T16:22:01.202Z,7.74
2019-03-18T16:25:05.317Z,7.65
2019-03-18T16:28:09.201Z,7.58
2019-03-18T16:31:13.041Z,7.48
2019-03-18T16:34:16.884Z,7.49
2019-03-18T16:37:20.703Z,7.61
2019-03-18T16:40:24.625Z,7.60
2019-03-18T16:43:28.461Z,7.57
2019-03-18T16:46:32.276Z,7.73
2019-03-18T16:49:36.137Z,7.69
2019-03-18T16:52:39.958Z,7.53
2019-03-18T16:55:43.785Z,7.38
2019-03-18T16:58:47.609Z,7.42
2019-03-18T17:01:51.413Z,7.34
2019-03-18T17:04:55.328Z,7.21
2019-03-18T17:07:59.241Z,7.24
2019-03-18T17:11:03.261Z,7.02
2019-03-18T17:14:07.101Z,7.06
2019-03-18T17:17:10.963Z,7.01
2019-03-18T17:20:14.855Z,6.84
2019-03-18T17:23:18.696Z,6.72
2019-03-18T17:26:22.520Z,6.76
2019-03-18T17:29:26.509Z,6.60
2019-03-18T17:32:30.336Z,6.66
2019-03-18T17:35:34.243Z,6.69
2019-03-18T17:38:38.078Z,6.57
2019-03-18T17:41:41.947Z,6.51
2019-03-18T17:44:45.732Z,6.56
2019-03-18T17:47:49.618Z,6.51
2019-03-18T17:50:53.439Z,6.56
2019-03-18T17:53:57.265Z,6.46
2019-03-18T17:57:07.192Z,6.39
2019-03-18T18:00:08.038Z,6.39
2019-03-18T18:03:11.908Z,6.35
2019-03-18T18:06:15.689Z,6.37
2019-03-18T18:09:19.516Z,6.31
2019-03-18T18:12:23.306Z,6.32
2019-03-18T18:15:27.309Z,6.27
2019-03-18T18:18:31.249Z,6.19
2019-03-18T18:21:35.061Z,6.15
2019-03-18T18:24:38.899Z,6.16
2019-03-18T18:27:42.811Z,6.10
2019-03-18T18:30:46.650Z,6.17
2019-03-18T18:33:50.468Z,6.27
2019-03-18T18:36:54.386Z,6.18
2019-03-18T18:39:58.204Z,6.18
2019-03-18T18:43:02.014Z,6.19
2019-03-18T18:46:05.918Z,6.14
2019-03-18T18:49:09.719Z,6.21
2019-03-18T18:52:13.533Z,6.25
2019-03-18T18:55:17.351Z,6.24
2019-03-18T18:58:21.161Z,6.06
2019-03-18T19:01:25.057Z,6.12
2019-03-18T19:04:28.891Z,6.03
2019-03-18T19:07:32.706Z,6.19
2019-03-18T19:10:36.613Z,6.01
2019-03-18T19:13:40.502Z,6.02
2019-03-18T19:16:44.273Z,5.93
2019-03-18T19:19:48.090Z,5.84
2019-03-18T19:22:52.062Z,6.01
2019-03-18T19:25:55.972Z,5.80
2019-03-18T19:28:59.799Z,5.82
2019-03-18T19:32:03.635Z,5.77
2019-03-18T19:35:07.707Z,5.81
2019-03-18T19:38:11.607Z,5.87
2019-03-18T19:41:15.485Z,5.78
2019-03-18T19:44:19.344Z,5.73
2019-03-18T19:47:23.252Z,5.81
2019-03-18T19:50:27.079Z,5.81
2019-03-18T19:53:30.938Z,5.86
2019-03-18T19:56:34.787Z,5.85
2019-03-18T19:59:38.595Z,5.79
2019-03-18T20:02:42.532Z,5.93
2019-03-18T20:05:46.348Z,5.81
2019-03-18T20:08:50.191Z,5.86
2019-03-18T20:11:54.110Z,5.85
2019-03-18T20:14:57.959Z,5.94
2019-03-18T20:18:01.857Z,5.77
2019-03-18T20:21:05.838Z,5.90
2019-03-18T20:24:09.650Z,5.91
2019-03-18T20:27:13.468Z,5.79
2019-03-18T20:30:17.686Z,5.87
2019-03-18T20:33:21.517Z,5.67
2019-03-18T20:36:25.353Z,5.73
2019-03-18T20:39:29.169Z,5.83
2019-03-18T20:42:32.998Z,5.59
2019-03-18T20:45:36.815Z,5.53
2019-03-18T20:48:40.645Z,5.48
2019-03-18T20:51:44.502Z,5.60
2019-03-18T20:54:48.316Z,5.40
2019-03-18T20:57:52.287Z,5.54
2019-03-18T21:00:56.331Z,5.43
2019-03-18T21:04:00.140Z,5.31
2019-03-18T21:07:04.003Z,5.36
2019-03-18T21:10:08.475Z,5.54
2019-03-18T21:13:12.382Z,5.46
2019-03-18T21:16:16.294Z,5.48
2019-03-18T21:19:20.135Z,5.25
2019-03-18T21:22:23.975Z,5.46
2019-03-18T21:25:27.941Z,5.50
2019-03-18T21:28:40.770Z,5.37
2019-03-18T21:31:37.383Z,5.27
2019-03-18T21:34:41.192Z,5.40
2019-03-18T21:37:45.070Z,5.41
2019-03-18T21:40:48.867Z,5.47
2019-03-18T21:43:52.791Z,5.50
2019-03-18T21:46:56.642Z,5.51
2019-03-18T21:50:00.580Z,5.40
2019-03-18T21:53:04.639Z,5.49
2019-03-18T21:56:08.530Z,5.48
2019-03-18T21:59:12.371Z,5.38
2019-03-18T22:02:16.205Z,5.46
2019-03-18T22:05:20.137Z,5.32
2019-03-18T22:08:23.981Z,5.22
2019-03-18T22:11:27.819Z,5.23
2019-03-18T22:14:31.665Z,5.22
2019-03-18T22:17:35.482Z,5.24
2019-03-18T22:20:39.352Z,5.22
2019-03-18T22:23:43.224Z,5.18
2019-03-18T22:26:47.110Z,5.23
2019-03-18T22:29:50.976Z,5.31
2019-03-18T22:32:54.809Z,5.35
2019-03-18T22:35:58.669Z,5.20
2019-03-18T22:39:02.546Z,5.10
2019-03-18T22:42:06.444Z,5.19
2019-03-18T22:45:10.606Z,5.18
2019-03-18T22:48:14.441Z,5.07
2019-03-18T22:51:18.458Z,5.05
2019-03-18T22:54:22.344Z,5.05
2019-03-18T22:57:26.173Z,5.19
2019-03-18T23:00:46.940Z,5.17
2019-03-18T23:03:50.923Z,5.07
2019-03-18T23:06:54.805Z,5.18
2019-03-18T23:09:58.638Z,5.01
2019-03-18T23:13:02.541Z,5.11
2019-03-18T23:16:06.398Z,4.98
2019-03-18T23:19:10.236Z,4.85
2019-03-18T23:22:14.179Z,4.86
2019-03-18T23:25:18.124Z,4.77
2019-03-18T23:28:21.955Z,4.81
2019-03-18T23:31:25.755Z,4.82
2019-03-18T23:34:29.589Z,4.87
2019-03-18T23:37:33.393Z,4.68
2019-03-18T23:40:37.304Z,4.56
2019-03-18T23:43:41.212Z,4.49
2019-03-18T23:46:45.027Z,4.63
2019-03-18T23:49:48.911Z,4.45
2019-03-18T23:52:52.727Z,4.42
2019-03-18T23:55:56.550Z,4.38
2019-03-18T23:59:00.466Z,4.38
